sensor_id;sensor_type;location;lat;lon;timestamp;pressure;altitude;pressure_sealevel;temperature;humidity
69574;BME280;62840;52.366;5.980;2023-08-06T00:02:25;100446.00;;;15.78;76.44
69574;BME280;62840;52.366;5.980;2023-08-06T00:04:51;100447.00;;;15.77;76.15
69574;BME280;62840;52.366;5.980;2023-08-06T00:07:19;100447.34;;;15.74;76.38
69574;BME280;62840;52.366;5.980;2023-08-06T00:09:45;100439.28;;;15.74;76.50
69574;BME280;62840;52.366;5.980;2023-08-06T00:12:11;100440.94;;;15.75;76.18
69574;BME280;62840;52.366;5.980;2023-08-06T00:14:36;100445.31;;;15.76;76.42
69574;BME280;62840;52.366;5.980;2023-08-06T00:17:03;100448.19;;;15.74;76.46
69574;BME280;62840;52.366;5.980;2023-08-06T00:19:28;100447.34;;;15.74;76.42
69574;BME280;62840;52.366;5.980;2023-08-06T00:21:54;100440.28;;;15.73;76.07
69574;BME280;62840;52.366;5.980;2023-08-06T00:24:22;100441.97;;;15.74;76.46
69574;BME280;62840;52.366;5.980;2023-08-06T00:26:48;100441.97;;;15.74;76.23
69574;BME280;62840;52.366;5.980;2023-08-06T00:29:14;100445.47;;;15.74;76.51
69574;BME280;62840;52.366;5.980;2023-08-06T00:31:40;100438.25;;;15.75;76.07
69574;BME280;62840;52.366;5.980;2023-08-06T00:34:05;100435.75;;;15.73;76.09
69574;BME280;62840;52.366;5.980;2023-08-06T00:36:31;100433.06;;;15.73;76.20
69574;BME280;62840;52.366;5.980;2023-08-06T00:38:57;100432.19;;;15.73;76.61
69574;BME280;62840;52.366;5.980;2023-08-06T00:41:25;100433.22;;;15.72;76.33
69574;BME280;62840;52.366;5.980;2023-08-06T00:43:51;100428.19;;;15.69;76.40
69574;BME280;62840;52.366;5.980;2023-08-06T00:46:17;100440.63;;;15.70;76.61
69574;BME280;62840;52.366;5.980;2023-08-06T00:48:44;100433.59;;;15.69;76.52
69574;BME280;62840;52.366;5.980;2023-08-06T00:51:10;100441.66;;;15.69;76.11
69574;BME280;62840;52.366;5.980;2023-08-06T00:53:37;100435.59;;;15.67;76.41
69574;BME280;62840;52.366;5.980;2023-08-06T00:56:03;100448.38;;;15.64;76.64
69574;BME280;62840;52.366;5.980;2023-08-06T00:58:32;100443.00;;;15.64;76.55
69574;BME280;62840;52.366;5.980;2023-08-06T01:00:58;100441.28;;;15.63;76.37
69574;BME280;62840;52.366;5.980;2023-08-06T01:03:24;100446.66;;;15.63;76.43
69574;BME280;62840;52.366;5.980;2023-08-06T01:05:50;100439.63;;;15.62;76.15
69574;BME280;62840;52.366;5.980;2023-08-06T01:08:36;100447.84;;;15.61;76.28
69574;BME280;62840;52.366;5.980;2023-08-06T01:11:21;100433.75;;;15.59;76.44
69574;BME280;62840;52.366;5.980;2023-08-06T01:14:06;100445.69;;;15.56;76.56
69574;BME280;62840;52.366;5.980;2023-08-06T01:16:40;100446.03;;;15.53;76.60
69574;BME280;62840;52.366;5.980;2023-08-06T01:19:16;100440.66;;;15.53;76.38
69574;BME280;62840;52.366;5.980;2023-08-06T01:21:44;100449.38;;;15.55;76.72
69574;BME280;62840;52.366;5.980;2023-08-06T01:24:10;100444.84;;;15.56;76.45
69574;BME280;62840;52.366;5.980;2023-08-06T01:26:42;100442.97;;;15.56;76.27
69574;BME280;62840;52.366;5.980;2023-08-06T01:29:16;100439.47;;;15.56;76.48
69574;BME280;62840;52.366;5.980;2023-08-06T01:31:50;100441.13;;;15.57;76.37
69574;BME280;62840;52.366;5.980;2023-08-06T01:34:22;100433.25;;;15.55;76.46
69574;BME280;62840;52.366;5.980;2023-08-06T01:36:52;100434.91;;;15.56;76.27
69574;BME280;62840;52.366;5.980;2023-08-06T01:39:18;100434.91;;;15.56;76.55
69574;BME280;62840;52.366;5.980;2023-08-06T01:41:44;100434.91;;;15.56;76.44
69574;BME280;62840;52.366;5.980;2023-08-06T01:44:10;100435.75;;;15.57;76.60
69574;BME280;62840;52.366;5.980;2023-08-06T01:46:35;100427.53;;;15.58;76.70
69574;BME280;62840;52.366;5.980;2023-08-06T01:49:01;100429.88;;;15.61;76.42
69574;BME280;62840;52.366;5.980;2023-08-06T01:51:27;100434.25;;;15.62;76.42
69574;BME280;62840;52.366;5.980;2023-08-06T01:53:55;100426.19;;;15.62;76.39
69574;BME280;62840;52.366;5.980;2023-08-06T01:56:21;100425.50;;;15.60;76.61
69574;BME280;62840;52.366;5.980;2023-08-06T01:58:47;100437.94;;;15.61;76.40
69574;BME280;62840;52.366;5.980;2023-08-06T02:01:12;100428.88;;;15.62;76.61
69574;BME280;62840;52.366;5.980;2023-08-06T02:03:38;100427.19;;;15.61;76.58
69574;BME280;62840;52.366;5.980;2023-08-06T02:06:04;100436.28;;;15.60;76.25
69574;BME280;62840;52.366;5.980;2023-08-06T02:08:30;100423.81;;;15.59;76.25
69574;BME280;62840;52.366;5.980;2023-08-06T02:10:58;100429.19;;;15.59;76.67
69574;BME280;62840;52.366;5.980;2023-08-06T02:13:24;100431.25;;;15.57;76.21
69574;BME280;62840;52.366;5.980;2023-08-06T02:15:49;100429.53;;;15.56;76.48
69574;BME280;62840;52.366;5.980;2023-08-06T02:18:15;100430.38;;;15.57;76.65
69574;BME280;62840;52.366;5.980;2023-08-06T02:20:42;100429.53;;;15.56;76.40
69574;BME280;62840;52.366;5.980;2023-08-06T02:23:08;100422.50;;;15.55;76.40
69574;BME280;62840;52.366;5.980;2023-08-06T02:25:33;100426.19;;;15.54;76.67
69574;BME280;62840;52.366;5.980;2023-08-06T02:28:02;100422.81;;;15.52;76.61
69574;BME280;62840;52.366;5.980;2023-08-06T02:30:28;100421.16;;;15.51;76.64
69574;BME280;62840;52.366;5.980;2023-08-06T02:32:54;100413.09;;;15.51;76.52
69574;BME280;62840;52.366;5.980;2023-08-06T02:35:19;100413.78;;;15.53;76.57
69574;BME280;62840;52.366;5.980;2023-08-06T02:37:45;100416.63;;;15.52;76.63
69574;BME280;62840;52.366;5.980;2023-08-06T02:40:11;100405.03;;;15.51;76.53
69574;BME280;62840;52.366;5.980;2023-08-06T02:42:36;100407.72;;;15.51;76.59
69574;BME280;62840;52.366;5.980;2023-08-06T02:45:06;100408.72;;;15.50;76.51
69574;BME280;62840;52.366;5.980;2023-08-06T02:47:33;100401.69;;;15.49;76.44
69574;BME280;62840;52.366;5.980;2023-08-06T02:49:58;100401.69;;;15.49;76.56
69574;BME280;62840;52.366;5.980;2023-08-06T02:52:24;100399.97;;;15.48;76.35
69574;BME280;62840;52.366;5.980;2023-08-06T02:54:50;100402.66;;;15.48;76.41
69574;BME280;62840;52.366;5.980;2023-08-06T02:57:16;100396.47;;;15.48;76.76
69574;BME280;62840;52.366;5.980;2023-08-06T02:59:41;100399.97;;;15.48;76.21
69574;BME280;62840;52.366;5.980;2023-08-06T03:02:10;100394.28;;;15.51;76.34
69574;BME280;62840;52.366;5.980;2023-08-06T03:04:35;100384.38;;;15.52;76.50
69574;BME280;62840;52.366;5.980;2023-08-06T03:07:01;100397.66;;;15.53;76.08
69574;BME280;62840;52.366;5.980;2023-08-06T03:09:27;100395.13;;;15.52;76.45
69574;BME280;62840;52.366;5.980;2023-08-06T03:11:53;100391.59;;;15.51;76.63
69574;BME280;62840;52.366;5.980;2023-08-06T03:14:18;100390.94;;;15.49;76.58
69574;BME280;62840;52.366;5.980;2023-08-06T03:16:44;100390.94;;;15.49;76.35
69574;BME280;62840;52.366;5.980;2023-08-06T03:19:12;100386.38;;;15.50;76.70
69574;BME280;62840;52.366;5.980;2023-08-06T03:21:38;100394.28;;;15.51;76.62
69574;BME280;62840;52.366;5.980;2023-08-06T03:24:04;100393.25;;;15.52;76.69
69574;BME280;62840;52.366;5.980;2023-08-06T03:26:30;100382.50;;;15.52;76.42
69574;BME280;62840;52.366;5.980;2023-08-06T03:28:55;100383.19;;;15.54;76.43
69574;BME280;62840;52.366;5.980;2023-08-06T03:31:21;100389.22;;;15.56;76.46
69574;BME280;62840;52.366;5.980;2023-08-06T03:33:47;100388.22;;;15.57;76.45
69574;BME280;62840;52.366;5.980;2023-08-06T03:36:15;100393.63;;;15.57;76.52
69574;BME280;62840;52.366;5.980;2023-08-06T03:38:41;100391.91;;;15.56;76.57
69574;BME280;62840;52.366;5.980;2023-08-06T03:41:07;100386.88;;;15.53;76.50
69574;BME280;62840;52.366;5.980;2023-08-06T03:43:32;100388.56;;;15.54;76.69
69574;BME280;62840;52.366;5.980;2023-08-06T03:45:58;100386.06;;;15.53;76.75
69574;BME280;62840;52.366;5.980;2023-08-06T03:48:24;100386.88;;;15.53;76.29
69574;BME280;62840;52.366;5.980;2023-08-06T03:50:50;100387.88;;;15.52;76.29
69574;BME280;62840;52.366;5.980;2023-08-06T03:53:18;100385.19;;;15.52;76.81
69574;BME280;62840;52.366;5.980;2023-08-06T03:55:44;100387.06;;;15.52;76.59
69574;BME280;62840;52.366;5.980;2023-08-06T03:58:10;100381.84;;;15.50;76.75
69574;BME280;62840;52.366;5.980;2023-08-06T04:00:35;100386.22;;;15.51;76.66
69574;BME280;62840;52.366;5.980;2023-08-06T04:03:01;100390.94;;;15.49;76.68
69574;BME280;62840;52.366;5.980;2023-08-06T04:05:27;100390.94;;;15.49;76.73
69574;BME280;62840;52.366;5.980;2023-08-06T04:07:53;100386.38;;;15.50;76.56
69574;BME280;62840;52.366;5.980;2023-08-06T04:10:21;100387.22;;;15.50;76.65
69574;BME280;62840;52.366;5.980;2023-08-06T04:12:47;100397.97;;;15.50;76.95
69574;BME280;62840;52.366;5.980;2023-08-06T04:15:12;100396.97;;;15.51;76.58
69574;BME280;62840;52.366;5.980;2023-08-06T04:17:38;100394.28;;;15.51;76.68
69574;BME280;62840;52.366;5.980;2023-08-06T04:20:06;100394.13;;;15.53;76.68
69574;BME280;62840;52.366;5.980;2023-08-06T04:22:32;100395.94;;;15.52;76.65
69574;BME280;62840;52.366;5.980;2023-08-06T04:24:58;100395.94;;;15.52;76.68
69574;BME280;62840;52.366;5.980;2023-08-06T04:27:26;100407.56;;;15.53;76.71
69574;BME280;62840;52.366;5.980;2023-08-06T04:29:52;100395.13;;;15.52;76.85
69574;BME280;62840;52.366;5.980;2023-08-06T04:32:18;100394.28;;;15.51;76.66
69574;BME280;62840;52.366;5.980;2023-08-06T04:34:43;100395.94;;;15.52;76.41
69574;BME280;62840;52.366;5.980;2023-08-06T04:37:09;100395.94;;;15.52;76.85
69574;BME280;62840;52.366;5.980;2023-08-06T04:39:35;100399.66;;;15.51;76.70
69574;BME280;62840;52.366;5.980;2023-08-06T04:42:01;100391.75;;;15.50;76.45
69574;BME280;62840;52.366;5.980;2023-08-06T04:44:29;100401.69;;;15.49;76.48
69574;BME280;62840;52.366;5.980;2023-08-06T04:46:55;100412.44;;;15.49;76.56
69574;BME280;62840;52.366;5.980;2023-08-06T04:49:21;100411.41;;;15.50;76.66
69574;BME280;62840;52.366;5.980;2023-08-06T04:51:47;100417.81;;;15.49;76.48
69574;BME280;62840;52.366;5.980;2023-08-06T04:54:12;100418.63;;;15.50;76.76
69574;BME280;62840;52.366;5.980;2023-08-06T04:56:38;100419.47;;;15.50;76.55
69574;BME280;62840;52.366;5.980;2023-08-06T04:59:04;100416.63;;;15.52;76.86
69574;BME280;62840;52.366;5.980;2023-08-06T05:01:32;100414.75;;;15.52;76.71
69574;BME280;62840;52.366;5.980;2023-08-06T05:03:58;100424.00;;;15.50;76.91
69574;BME280;62840;52.366;5.980;2023-08-06T05:06:24;100420.31;;;15.51;76.57
69574;BME280;62840;52.366;5.980;2023-08-06T05:08:49;100428.56;;;15.49;76.71
69574;BME280;62840;52.366;5.980;2023-08-06T05:11:15;100433.94;;;15.49;76.62
69574;BME280;62840;52.366;5.980;2023-08-06T05:13:41;100426.84;;;15.48;76.65
69574;BME280;62840;52.366;5.980;2023-08-06T05:16:07;100419.81;;;15.47;76.76
69574;BME280;62840;52.366;5.980;2023-08-06T05:18:35;100435.94;;;15.47;76.66
69574;BME280;62840;52.366;5.980;2023-08-06T05:21:01;100425.34;;;15.45;76.86
69574;BME280;62840;52.366;5.980;2023-08-06T05:23:26;100432.59;;;15.45;76.50
69574;BME280;62840;52.366;5.980;2023-08-06T05:25:52;100431.41;;;15.48;76.65
69574;BME280;62840;52.366;5.980;2023-08-06T05:28:18;100433.94;;;15.49;76.79
69574;BME280;62840;52.366;5.980;2023-08-06T05:30:43;100435.78;;;15.49;76.77
69574;BME280;62840;52.366;5.980;2023-08-06T05:33:09;100433.94;;;15.49;76.52
69574;BME280;62840;52.366;5.980;2023-08-06T05:35:37;100428.38;;;15.51;76.74
69574;BME280;62840;52.366;5.980;2023-08-06T05:38:03;100430.22;;;15.50;76.47
69574;BME280;62840;52.366;5.980;2023-08-06T05:40:29;100433.56;;;15.52;76.68
69574;BME280;62840;52.366;5.980;2023-08-06T05:42:55;100435.28;;;15.53;76.78
69574;BME280;62840;52.366;5.980;2023-08-06T05:45:20;100440.66;;;15.53;76.44
69574;BME280;62840;52.366;5.980;2023-08-06T05:47:48;100444.00;;;15.55;76.72
69574;BME280;62840;52.366;5.980;2023-08-06T05:50:13;100447.69;;;15.54;76.58
69574;BME280;62840;52.366;5.980;2023-08-06T05:52:42;100444.84;;;15.56;76.98
69574;BME280;62840;52.366;5.980;2023-08-06T05:55:08;100442.00;;;15.57;76.88
69574;BME280;62840;52.366;5.980;2023-08-06T05:57:34;100450.69;;;15.59;76.58
69574;BME280;62840;52.366;5.980;2023-08-06T06:00:00;100452.41;;;15.60;76.59
69574;BME280;62840;52.366;5.980;2023-08-06T06:02:26;100447.84;;;15.61;76.51
69574;BME280;62840;52.366;5.980;2023-08-06T06:04:52;100449.56;;;15.62;76.67
69574;BME280;62840;52.366;5.980;2023-08-06T06:07:17;100457.63;;;15.62;76.76
69574;BME280;62840;52.366;5.980;2023-08-06T06:09:46;100454.94;;;15.62;77.03
69574;BME280;62840;52.366;5.980;2023-08-06T06:12:11;100452.03;;;15.63;77.10
69574;BME280;62840;52.366;5.980;2023-08-06T06:14:37;100457.09;;;15.67;76.83
69574;BME280;62840;52.366;5.980;2023-08-06T06:17:03;100456.25;;;15.66;76.79
69574;BME280;62840;52.366;5.980;2023-08-06T06:19:29;100461.28;;;15.69;77.03
69574;BME280;62840;52.366;5.980;2023-08-06T06:21:55;100461.78;;;15.73;76.96
69574;BME280;62840;52.366;5.980;2023-08-06T06:24:20;100467.16;;;15.73;77.24
69574;BME280;62840;52.366;5.980;2023-08-06T06:26:49;100465.13;;;15.75;77.16
69574;BME280;62840;52.366;5.980;2023-08-06T06:29:15;100467.66;;;15.76;76.69
69574;BME280;62840;52.366;5.980;2023-08-06T06:31:40;100472.88;;;15.78;76.85
69574;BME280;62840;52.366;5.980;2023-08-06T06:34:06;100478.25;;;15.78;76.76
69574;BME280;62840;52.366;5.980;2023-08-06T06:36:32;100480.09;;;15.77;76.75
69574;BME280;62840;52.366;5.980;2023-08-06T06:38:58;100479.94;;;15.79;77.04
69574;BME280;62840;52.366;5.980;2023-08-06T06:41:23;100475.25;;;15.81;76.58
69574;BME280;62840;52.366;5.980;2023-08-06T06:43:52;100476.09;;;15.81;76.85
69574;BME280;62840;52.366;5.980;2023-08-06T06:46:17;100485.03;;;15.82;76.63
69574;BME280;62840;52.366;5.980;2023-08-06T06:48:43;100478.63;;;15.83;76.56
69574;BME280;62840;52.366;5.980;2023-08-06T06:51:09;100479.44;;;15.83;77.02
69574;BME280;62840;52.366;5.980;2023-08-06T06:53:35;100483.84;;;15.84;76.92
69574;BME280;62840;52.366;5.980;2023-08-06T06:56:02;100485.34;;;15.87;77.05
69574;BME280;62840;52.366;5.980;2023-08-06T06:58:29;100477.09;;;15.89;76.71
69574;BME280;62840;52.366;5.980;2023-08-06T07:00:58;100482.97;;;15.92;76.91
69574;BME280;62840;52.366;5.980;2023-08-06T07:03:24;100481.78;;;15.95;77.15
69574;BME280;62840;52.366;5.980;2023-08-06T07:05:50;100481.47;;;15.98;76.84
69574;BME280;62840;52.366;5.980;2023-08-06T07:08:16;100489.34;;;15.99;76.67
69574;BME280;62840;52.366;5.980;2023-08-06T07:10:42;100481.28;;;15.99;76.85
69574;BME280;62840;52.366;5.980;2023-08-06T07:13:08;100484.63;;;16.01;77.27
69574;BME280;62840;52.366;5.980;2023-08-06T07:15:35;100485.31;;;16.03;77.08
69574;BME280;62840;52.366;5.980;2023-08-06T07:18:03;100485.31;;;16.03;76.99
69574;BME280;62840;52.366;5.980;2023-08-06T07:20:29;100494.03;;;16.05;76.96
69574;BME280;62840;52.366;5.980;2023-08-06T07:22:55;100488.31;;;16.09;76.80
69574;BME280;62840;52.366;5.980;2023-08-06T07:25:20;100490.00;;;16.10;76.99
69574;BME280;62840;52.366;5.980;2023-08-06T07:27:46;100501.44;;;16.12;77.19
69574;BME280;62840;52.366;5.980;2023-08-06T07:30:12;100500.41;;;16.13;77.05
69574;BME280;62840;52.366;5.980;2023-08-06T07:32:38;100501.91;;;16.15;76.88
69574;BME280;62840;52.366;5.980;2023-08-06T07:35:07;100502.41;;;16.19;76.76
69574;BME280;62840;52.366;5.980;2023-08-06T07:37:33;100498.72;;;16.20;76.64
69574;BME280;62840;52.366;5.980;2023-08-06T07:39:59;100493.16;;;16.21;76.92
69574;BME280;62840;52.366;5.980;2023-08-06T07:42:25;100506.44;;;16.23;76.90
69574;BME280;62840;52.366;5.980;2023-08-06T07:44:52;100508.13;;;16.24;77.16
69574;BME280;62840;52.366;5.980;2023-08-06T07:47:19;100508.94;;;16.24;77.14
69574;BME280;62840;52.366;5.980;2023-08-06T07:49:45;100506.09;;;16.26;76.82
69574;BME280;62840;52.366;5.980;2023-08-06T07:52:13;100509.47;;;16.28;76.69
69574;BME280;62840;52.366;5.980;2023-08-06T07:54:39;100507.44;;;16.30;76.88
69574;BME280;62840;52.366;5.980;2023-08-06T07:57:05;100502.88;;;16.31;76.92
69574;BME280;62840;52.366;5.980;2023-08-06T07:59:31;100500.03;;;16.32;76.77
69574;BME280;62840;52.366;5.980;2023-08-06T08:01:57;100505.06;;;16.35;77.04
69574;BME280;62840;52.366;5.980;2023-08-06T08:04:23;100506.41;;;16.39;76.88
69574;BME280;62840;52.366;5.980;2023-08-06T08:06:49;100504.38;;;16.41;77.28
69574;BME280;62840;52.366;5.980;2023-08-06T08:09:18;100509.41;;;16.44;77.01
69574;BME280;62840;52.366;5.980;2023-08-06T08:11:43;100495.78;;;16.46;77.36
69574;BME280;62840;52.366;5.980;2023-08-06T08:14:09;100507.06;;;16.50;76.98
69574;BME280;62840;52.366;5.980;2023-08-06T08:16:35;100502.13;;;16.53;77.27
69574;BME280;62840;52.366;5.980;2023-08-06T08:19:01;100497.25;;;16.57;77.26
69574;BME280;62840;52.366;5.980;2023-08-06T08:21:27;100503.31;;;16.59;77.17
69574;BME280;62840;52.366;5.980;2023-08-06T08:23:52;100503.97;;;16.61;77.28
69574;BME280;62840;52.366;5.980;2023-08-06T08:26:21;100501.09;;;16.62;77.36
69574;BME280;62840;52.366;5.980;2023-08-06T08:28:47;100511.69;;;16.64;77.50
69574;BME280;62840;52.366;5.980;2023-08-06T08:31:12;100513.19;;;16.66;77.47
69574;BME280;62840;52.366;5.980;2023-08-06T08:33:38;100522.78;;;16.69;77.25
69574;BME280;62840;52.366;5.980;2023-08-06T08:36:04;100515.72;;;16.68;77.53
69574;BME280;62840;52.366;5.980;2023-08-06T08:38:30;100509.31;;;16.69;77.30
69574;BME280;62840;52.366;5.980;2023-08-06T08:40:56;100510.81;;;16.72;77.31
69574;BME280;62840;52.366;5.980;2023-08-06T08:43:24;100516.19;;;16.72;77.21
69574;BME280;62840;52.366;5.980;2023-08-06T08:45:51;100504.59;;;16.71;77.09
69574;BME280;62840;52.366;5.980;2023-08-06T08:48:18;100512.66;;;16.71;77.33
69574;BME280;62840;52.366;5.980;2023-08-06T08:50:45;100512.00;;;16.69;77.25
69574;BME280;62840;52.366;5.980;2023-08-06T08:53:14;100520.75;;;16.71;77.21
69574;BME280;62840;52.366;5.980;2023-08-06T08:55:43;100516.03;;;16.73;77.54
69574;BME280;62840;52.366;5.980;2023-08-06T08:58:09;100515.34;;;16.71;77.29
69574;BME280;62840;52.366;5.980;2023-08-06T09:00:38;100516.03;;;16.73;77.38
69574;BME280;62840;52.366;5.980;2023-08-06T09:03:08;100526.63;;;16.75;77.50
69574;BME280;62840;52.366;5.980;2023-08-06T09:05:34;100534.88;;;16.73;77.25
69574;BME280;62840;52.366;5.980;2023-08-06T09:08:03;100531.16;;;16.74;77.15
69574;BME280;62840;52.366;5.980;2023-08-06T09:10:30;100527.81;;;16.72;77.46
69574;BME280;62840;52.366;5.980;2023-08-06T09:12:57;100533.84;;;16.74;77.67
69574;BME280;62840;52.366;5.980;2023-08-06T09:15:24;100530.16;;;16.75;77.23
69574;BME280;62840;52.366;5.980;2023-08-06T09:17:53;100534.53;;;16.76;77.40
69574;BME280;62840;52.366;5.980;2023-08-06T09:20:19;100539.56;;;16.79;77.40
69574;BME280;62840;52.366;5.980;2023-08-06T09:22:45;100541.25;;;16.80;77.25
69574;BME280;62840;52.366;5.980;2023-08-06T09:25:11;100542.97;;;16.81;77.14
69574;BME280;62840;52.366;5.980;2023-08-06T09:27:37;100540.41;;;16.80;76.83
69574;BME280;62840;52.366;5.980;2023-08-06T09:30:05;100553.03;;;16.79;77.19
69574;BME280;62840;52.366;5.980;2023-08-06T09:32:44;100543.09;;;16.80;77.38
69574;BME280;62840;52.366;5.980;2023-08-06T09:35:16;100549.19;;;16.82;77.51
69574;BME280;62840;52.366;5.980;2023-08-06T09:37:42;100556.91;;;16.85;77.55
69574;BME280;62840;52.366;5.980;2023-08-06T09:40:24;100552.69;;;16.91;77.13
69574;BME280;62840;52.366;5.980;2023-08-06T09:42:50;100563.09;;;16.94;77.75
69574;BME280;62840;52.366;5.980;2023-08-06T09:45:16;100559.03;;;16.98;77.10
69574;BME280;62840;52.366;5.980;2023-08-06T09:47:42;100557.03;;;17.00;77.36
69574;BME280;62840;52.366;5.980;2023-08-06T09:50:17;100555.00;;;17.02;77.56
69574;BME280;62840;52.366;5.980;2023-08-06T09:52:43;100561.88;;;17.04;77.61
69574;BME280;62840;52.366;5.980;2023-08-06T09:55:10;100554.25;;;17.08;77.34
69574;BME280;62840;52.366;5.980;2023-08-06T09:57:39;100551.22;;;17.11;77.18
69574;BME280;62840;52.366;5.980;2023-08-06T10:00:07;100558.94;;;17.14;77.63
69574;BME280;62840;52.366;5.980;2023-08-06T10:02:33;100564.00;;;17.17;77.29
69574;BME280;62840;52.366;5.980;2023-08-06T10:05:01;100563.63;;;17.20;77.21
69574;BME280;62840;52.366;5.980;2023-08-06T10:07:31;100562.44;;;17.23;77.06
69574;BME280;62840;52.366;5.980;2023-08-06T10:09:58;100564.97;;;17.24;77.22
69574;BME280;62840;52.366;5.980;2023-08-06T10:12:25;100570.00;;;17.27;77.06
69574;BME280;62840;52.366;5.980;2023-08-06T10:14:56;100575.38;;;17.27;77.32
69574;BME280;62840;52.366;5.980;2023-08-06T10:17:25;100566.94;;;17.30;76.92
69574;BME280;62840;52.366;5.980;2023-08-06T10:19:52;100564.25;;;17.30;77.37
69574;BME280;62840;52.366;5.980;2023-08-06T10:22:18;100566.75;;;17.32;77.21
69574;BME280;62840;52.366;5.980;2023-08-06T10:24:51;100563.06;;;17.33;76.83
69574;BME280;62840;52.366;5.980;2023-08-06T10:27:29;100560.19;;;17.35;76.88
69574;BME280;62840;52.366;5.980;2023-08-06T10:30:23;100558.16;;;17.37;77.31
69574;BME280;62840;52.366;5.980;2023-08-06T10:32:51;100565.22;;;17.38;76.97
69574;BME280;62840;52.366;5.980;2023-08-06T10:35:36;100557.97;;;17.38;77.01
69574;BME280;62840;52.366;5.980;2023-08-06T10:38:07;100560.66;;;17.38;76.97
69574;BME280;62840;52.366;5.980;2023-08-06T10:40:39;100561.50;;;17.39;76.82
69574;BME280;62840;52.366;5.980;2023-08-06T10:43:07;100560.50;;;17.40;77.08
69574;BME280;62840;52.366;5.980;2023-08-06T10:45:34;100568.59;;;17.40;76.89
69574;BME280;62840;52.366;5.980;2023-08-06T10:48:01;100561.50;;;17.39;76.67
69574;BME280;62840;52.366;5.980;2023-08-06T10:50:27;100571.28;;;17.40;77.41
69574;BME280;62840;52.366;5.980;2023-08-06T10:52:54;100569.25;;;17.42;77.37
69574;BME280;62840;52.366;5.980;2023-08-06T10:55:23;100569.88;;;17.44;77.46
69574;BME280;62840;52.366;5.980;2023-08-06T10:57:53;100566.19;;;17.45;77.00
69574;BME280;62840;52.366;5.980;2023-08-06T11:00:21;100567.84;;;17.46;77.23
69574;BME280;62840;52.366;5.980;2023-08-06T11:02:48;100570.56;;;17.46;77.15
69574;BME280;62840;52.366;5.980;2023-08-06T11:05:14;100561.25;;;17.48;76.75
69574;BME280;62840;52.366;5.980;2023-08-06T11:07:40;100561.75;;;17.52;76.72
69574;BME280;62840;52.366;5.980;2023-08-06T11:10:08;100565.13;;;17.54;77.25
69574;BME280;62840;52.366;5.980;2023-08-06T11:12:35;100558.34;;;17.58;76.72
69574;BME280;62840;52.366;5.980;2023-08-06T11:15:05;100561.72;;;17.60;77.39
69574;BME280;62840;52.366;5.980;2023-08-06T11:17:34;100556.97;;;17.62;77.01
69574;BME280;62840;52.366;5.980;2023-08-06T11:20:00;100560.97;;;17.66;77.29
69574;BME280;62840;52.366;5.980;2023-08-06T11:22:27;100557.94;;;17.69;77.07
69574;BME280;62840;52.366;5.980;2023-08-06T11:24:54;100560.06;;;17.74;77.13
69574;BME280;62840;52.366;5.980;2023-08-06T11:27:20;100556.03;;;17.78;77.08
69574;BME280;62840;52.366;5.980;2023-08-06T11:29:46;100560.22;;;17.81;76.79
69574;BME280;62840;52.366;5.980;2023-08-06T11:32:14;100558.19;;;17.83;76.51
69574;BME280;62840;52.366;5.980;2023-08-06T11:34:40;100555.13;;;17.86;76.75
69574;BME280;62840;52.366;5.980;2023-08-06T11:37:06;100564.53;;;17.90;76.58
69574;BME280;62840;52.366;5.980;2023-08-06T11:39:32;100562.13;;;17.95;76.52
69574;BME280;62840;52.366;5.980;2023-08-06T11:41:58;100566.78;;;18.01;76.98
69574;BME280;62840;52.366;5.980;2023-08-06T11:44:24;100563.72;;;18.04;76.87
69574;BME280;62840;52.366;5.980;2023-08-06T11:46:50;100560.69;;;18.07;76.40
69574;BME280;62840;52.366;5.980;2023-08-06T11:49:19;100567.56;;;18.10;76.62
69574;BME280;62840;52.366;5.980;2023-08-06T11:51:45;100566.34;;;18.12;76.34
69574;BME280;62840;52.366;5.980;2023-08-06T11:54:10;100564.66;;;18.11;76.26
69574;BME280;62840;52.366;5.980;2023-08-06T11:56:36;100558.25;;;18.12;76.10
69574;BME280;62840;52.366;5.980;2023-08-06T11:59:02;100559.91;;;18.13;75.92
69574;BME280;62840;52.366;5.980;2023-08-06T12:01:28;100567.00;;;18.14;76.08
69574;BME280;62840;52.366;5.980;2023-08-06T12:03:58;100574.72;;;18.18;76.26
69574;BME280;62840;52.366;5.980;2023-08-06T12:06:29;100564.97;;;18.17;75.59
69574;BME280;62840;52.366;5.980;2023-08-06T12:08:55;100572.03;;;18.18;75.91
69574;BME280;62840;52.366;5.980;2023-08-06T12:11:21;100575.38;;;18.20;75.91
69574;BME280;62840;52.366;5.980;2023-08-06T12:13:50;100577.09;;;18.21;76.42
69574;BME280;62840;52.366;5.980;2023-08-06T12:16:16;100577.09;;;18.21;75.70
69574;BME280;62840;52.366;5.980;2023-08-06T12:18:42;100575.38;;;18.20;76.01
69574;BME280;62840;52.366;5.980;2023-08-06T12:21:07;100577.44;;;18.18;76.32
69574;BME280;62840;52.366;5.980;2023-08-06T12:23:36;100580.13;;;18.18;75.82
69574;BME280;62840;52.366;5.980;2023-08-06T12:26:01;100583.66;;;18.18;76.16
69574;BME280;62840;52.366;5.980;2023-08-06T12:28:27;100590.25;;;18.16;76.38
69574;BME280;62840;52.366;5.980;2023-08-06T12:30:53;100586.91;;;18.13;75.84
69574;BME280;62840;52.366;5.980;2023-08-06T12:33:19;100588.94;;;18.11;76.09
69574;BME280;62840;52.366;5.980;2023-08-06T12:35:44;100589.81;;;18.12;76.26
69574;BME280;62840;52.366;5.980;2023-08-06T12:38:10;100592.69;;;18.10;75.95
69574;BME280;62840;52.366;5.980;2023-08-06T12:40:38;100595.56;;;18.09;75.82
69574;BME280;62840;52.366;5.980;2023-08-06T12:43:04;100588.66;;;18.06;76.12
69574;BME280;62840;52.366;5.980;2023-08-06T12:45:30;100594.78;;;18.00;76.09
69574;BME280;62840;52.366;5.980;2023-08-06T12:47:56;100603.75;;;18.01;76.38
69574;BME280;62840;52.366;5.980;2023-08-06T12:50:22;100609.47;;;17.98;76.29